createdAt,value
2022-07-29T00:01:49.919Z,5.53
2022-07-29T00:04:07.839Z,5.60
2022-07-29T00:06:25.818Z,5.10
2022-07-29T00:08:43.880Z,5.35
2022-07-29T00:11:01.773Z,5.00
2022-07-29T00:13:32.659Z,5.60
2022-07-29T00:15:51.621Z,5.35
2022-07-29T00:18:09.606Z,5.22
2022-07-29T00:20:27.461Z,5.35
2022-07-29T00:22:45.795Z,5.40
2022-07-29T00:25:03.605Z,5.05
2022-07-29T00:27:21.889Z,5.22
2022-07-29T00:29:39.992Z,5.60
2022-07-29T00:31:57.888Z,4.82
2022-07-29T00:34:34.352Z,5.40
2022-07-29T00:36:52.209Z,5.40
2022-07-29T00:39:10.384Z,4.85
2022-07-29T00:41:28.245Z,5.07
2022-07-29T00:43:46.841Z,5.55
2022-07-29T00:46:04.984Z,5.50
2022-07-29T00:48:24.103Z,5.82
2022-07-29T00:50:42.298Z,5.35
2022-07-29T00:53:00.568Z,5.78
2022-07-29T00:55:19.142Z,5.50
2022-07-29T00:57:37.827Z,5.50
2022-07-29T00:59:56.950Z,5.18
2022-07-29T01:02:14.827Z,5.18
2022-07-29T01:04:33.257Z,5.47
2022-07-29T01:06:51.297Z,5.40
2022-07-29T01:09:09.345Z,5.53
2022-07-29T01:11:27.429Z,5.40
2022-07-29T01:13:46.387Z,5.70
2022-07-29T01:16:12.691Z,5.47
2022-07-29T01:18:34.087Z,5.80
2022-07-29T01:20:58.144Z,5.32
2022-07-29T01:23:16.317Z,5.63
2022-07-29T01:25:43.605Z,5.00
2022-07-29T01:28:02.277Z,5.72
2022-07-29T01:30:26.734Z,5.60
2022-07-29T01:32:49.562Z,5.38
2022-07-29T01:35:07.544Z,5.50
2022-07-29T01:37:36.328Z,5.75
2022-07-29T01:39:56.365Z,5.57
2022-07-29T01:42:14.283Z,5.65
2022-07-29T01:44:34.206Z,5.20
2022-07-29T01:46:56.108Z,6.00
2022-07-29T01:49:18.876Z,5.90
2022-07-29T01:54:01.325Z,5.65
2022-07-29T01:56:20.619Z,5.55
2022-07-29T01:58:40.832Z,5.25
2022-07-29T02:01:00.251Z,5.13
2022-07-29T02:03:19.047Z,5.28
2022-07-29T02:05:38.180Z,5.30
2022-07-29T02:07:57.826Z,5.40
2022-07-29T02:10:16.654Z,5.35
2022-07-29T02:12:37.194Z,5.75
2022-07-29T02:14:55.817Z,5.50
2022-07-29T02:17:14.336Z,5.75
2022-07-29T02:19:36.745Z,5.28
2022-07-29T02:21:56.920Z,5.50
2022-07-29T02:24:16.122Z,5.30
2022-07-29T02:26:35.497Z,5.40
2022-07-29T02:28:54.049Z,5.65
2022-07-29T02:31:13.222Z,5.68
2022-07-29T02:33:32.673Z,5.97
2022-07-29T02:35:51.102Z,5.28
2022-07-29T02:38:28.561Z,5.88
2022-07-29T02:40:47.817Z,5.82
2022-07-29T02:43:07.261Z,5.53
2022-07-29T02:45:25.337Z,5.47
2022-07-29T02:47:44.567Z,5.97
2022-07-29T02:50:04.375Z,5.70
2022-07-29T02:52:28.237Z,5.88
2022-07-29T02:54:59.955Z,5.38
2022-07-29T02:57:22.743Z,5.47
2022-07-29T02:59:43.467Z,5.55
2022-07-29T03:02:02.069Z,5.63
2022-07-29T03:04:21.372Z,6.00
2022-07-29T03:06:41.540Z,5.88
2022-07-29T03:09:00.984Z,5.55
2022-07-29T03:11:19.454Z,6.10
2022-07-29T03:13:57.381Z,5.50
2022-07-29T03:16:15.368Z,5.80
2022-07-29T03:18:33.638Z,6.40
2022-07-29T03:20:51.534Z,5.90
2022-07-29T03:23:09.843Z,5.82
2022-07-29T03:25:28.586Z,6.25
2022-07-29T03:27:47.530Z,5.53
2022-07-29T03:30:06.794Z,6.07
2022-07-29T03:32:26.727Z,5.95
2022-07-29T03:34:46.105Z,5.65
2022-07-29T03:37:04.141Z,5.85
2022-07-29T03:39:23.952Z,5.90
2022-07-29T03:41:43.383Z,6.10
2022-07-29T03:44:01.892Z,6.07
2022-07-29T03:46:21.136Z,6.03
2022-07-29T03:48:41.480Z,6.78
2022-07-29T03:50:59.544Z,6.50
2022-07-29T03:53:17.498Z,6.05
2022-07-29T03:55:38.194Z,6.63
2022-07-29T03:57:57.361Z,6.18
2022-07-29T04:00:16.689Z,6.50
2022-07-29T04:02:34.815Z,6.47
2022-07-29T04:04:53.336Z,6.28
2022-07-29T04:07:13.940Z,6.45
2022-07-29T04:09:32.119Z,6.57
2022-07-29T04:12:01.979Z,5.90
2022-07-29T04:14:22.222Z,6.38
2022-07-29T04:16:40.117Z,6.60
2022-07-29T04:18:57.928Z,5.90
2022-07-29T04:21:15.798Z,6.43
2022-07-29T04:23:34.737Z,6.85
2022-07-29T04:25:52.611Z,6.22
2022-07-29T04:28:11.216Z,6.47
2022-07-29T04:30:29.962Z,6.13
2022-07-29T04:32:48.194Z,6.40
2022-07-29T04:35:06.293Z,7.00
2022-07-29T04:37:24.289Z,6.53
2022-07-29T04:39:42.115Z,6.82
2022-07-29T04:41:59.969Z,6.38
2022-07-29T04:44:20.161Z,7.10
2022-07-29T04:46:38.192Z,6.93
2022-07-29T04:48:56.193Z,6.22
2022-07-29T04:51:14.443Z,6.47
2022-07-29T04:53:32.286Z,6.45
2022-07-29T04:55:50.429Z,6.68
2022-07-29T04:58:08.956Z,6.95
2022-07-29T05:00:28.041Z,7.00
2022-07-29T05:02:51.553Z,8.15
2022-07-29T05:05:09.815Z,7.00
2022-07-29T05:07:27.703Z,6.60
2022-07-29T05:09:45.587Z,7.07
2022-07-29T05:12:03.657Z,6.90
2022-07-29T05:14:21.493Z,7.15
2022-07-29T05:16:41.225Z,7.10
2022-07-29T05:18:59.037Z,6.80
2022-07-29T05:21:16.894Z,7.03
2022-07-29T05:23:34.732Z,6.95
2022-07-29T05:25:52.660Z,6.40
2022-07-29T05:28:10.691Z,7.20
2022-07-29T05:30:28.491Z,7.28
2022-07-29T05:32:46.993Z,7.25
2022-07-29T05:35:05.164Z,7.43
2022-07-29T05:37:23.826Z,7.53
2022-07-29T05:39:47.082Z,7.85
2022-07-29T05:42:12.149Z,7.82
2022-07-29T05:44:29.993Z,7.78
2022-07-29T05:46:48.078Z,7.47
2022-07-29T05:49:10.513Z,7.65
2022-07-29T05:51:45.196Z,7.68
2022-07-29T05:54:03.670Z,7.32
2022-07-29T05:56:22.713Z,7.57
2022-07-29T05:58:43.329Z,7.53
2022-07-29T06:01:02.765Z,7.28
2022-07-29T06:03:21.124Z,7.82
2022-07-29T06:05:38.971Z,7.50
2022-07-29T06:07:57.869Z,8.05
2022-07-29T06:10:15.828Z,7.25
2022-07-29T06:12:34.018Z,7.07
2022-07-29T06:14:54.322Z,7.50
2022-07-29T06:17:13.014Z,7.80
2022-07-29T06:19:31.020Z,7.82
2022-07-29T06:21:49.368Z,6.88
2022-07-29T06:24:08.898Z,7.07
2022-07-29T06:26:30.423Z,7.38
2022-07-29T06:28:49.422Z,7.35
2022-07-29T06:31:08.793Z,7.50
2022-07-29T06:33:29.025Z,7.20
2022-07-29T06:35:53.338Z,7.03
2022-07-29T06:38:31.557Z,7.07
2022-07-29T06:41:01.477Z,6.95
2022-07-29T06:43:19.739Z,6.85
2022-07-29T06:45:37.859Z,6.95
2022-07-29T06:47:55.746Z,6.38
2022-07-29T06:50:13.961Z,6.53
2022-07-29T06:52:32.439Z,6.40
2022-07-29T06:54:50.381Z,6.10
2022-07-29T06:57:08.464Z,6.40
2022-07-29T06:59:35.024Z,6.25
2022-07-29T07:01:53.507Z,6.50
2022-07-29T07:04:11.688Z,6.70
2022-07-29T07:06:29.728Z,6.45
2022-07-29T07:08:47.675Z,6.60
2022-07-29T07:11:07.364Z,6.45
2022-07-29T07:13:25.779Z,6.70
2022-07-29T07:15:43.636Z,6.10
2022-07-29T07:18:01.880Z,6.53
2022-07-29T07:20:20.438Z,6.75
2022-07-29T07:22:39.163Z,6.95
2022-07-29T07:24:57.338Z,6.35
2022-07-29T07:27:15.900Z,6.13
2022-07-29T07:29:34.024Z,5.63
2022-07-29T07:31:53.512Z,6.15
2022-07-29T07:34:14.618Z,6.03
2022-07-29T07:36:33.028Z,6.38
2022-07-29T07:38:51.521Z,6.13
2022-07-29T07:41:09.608Z,5.57
2022-07-29T07:43:27.484Z,5.97
2022-07-29T07:45:45.511Z,5.97
2022-07-29T07:48:03.813Z,5.85
2022-07-29T07:50:21.903Z,5.90
2022-07-29T07:52:50.380Z,5.60
2022-07-29T07:55:08.550Z,5.75
2022-07-29T07:57:26.381Z,5.85
2022-07-29T07:59:44.571Z,5.85
2022-07-29T08:02:02.633Z,5.57
2022-07-29T08:04:25.132Z,5.75
2022-07-29T08:06:45.917Z,5.85
2022-07-29T08:09:27.767Z,5.50
2022-07-29T08:11:52.059Z,5.30
2022-07-29T08:14:10.314Z,4.80
2022-07-29T08:16:32.156Z,5.03
2022-07-29T08:18:50.161Z,4.40
2022-07-29T08:21:08.065Z,4.93
2022-07-29T08:23:32.811Z,4.88
2022-07-29T08:26:04.045Z,5.13
2022-07-29T08:28:25.773Z,5.75
2022-07-29T08:30:44.020Z,5.15
2022-07-29T08:33:02.201Z,5.43
2022-07-29T08:35:20.298Z,5.65
2022-07-29T08:37:38.151Z,4.78
2022-07-29T08:39:56.156Z,4.80
2022-07-29T08:42:14.464Z,5.30
2022-07-29T08:44:33.616Z,5.90
2022-07-29T08:46:52.009Z,4.47
2022-07-29T08:49:09.993Z,5.20
2022-07-29T08:51:29.449Z,5.05
2022-07-29T08:53:50.349Z,5.10
2022-07-29T08:56:09.730Z,4.97
2022-07-29T08:58:28.918Z,4.93
2022-07-29T09:00:48.636Z,5.13
2022-07-29T09:03:07.521Z,5.10
2022-07-29T09:05:26.079Z,4.57
2022-07-29T09:07:44.975Z,4.50
2022-07-29T09:10:03.400Z,4.13
2022-07-29T09:12:29.427Z,4.53
2022-07-29T09:14:48.432Z,4.60
2022-07-29T09:17:07.172Z,4.72
2022-07-29T09:19:26.923Z,4.53
2022-07-29T09:22:00.466Z,4.70
2022-07-29T09:24:21.359Z,4.55
2022-07-29T09:26:41.680Z,5.10
2022-07-29T09:29:00.183Z,4.65
2022-07-29T09:31:18.465Z,4.68
2022-07-29T09:33:36.847Z,4.68
2022-07-29T09:36:21.528Z,4.90
2022-07-29T09:38:39.962Z,4.72
2022-07-29T09:40:59.911Z,5.05
2022-07-29T09:43:24.106Z,5.18
2022-07-29T09:45:42.510Z,4.15
2022-07-29T09:48:04.188Z,4.85
2022-07-29T09:50:25.231Z,4.95
2022-07-29T09:52:50.413Z,4.65
2022-07-29T09:55:17.926Z,5.13
2022-07-29T09:57:36.296Z,4.72
2022-07-29T10:00:01.934Z,4.60
2022-07-29T10:02:30.929Z,4.80
2022-07-29T10:04:48.943Z,5.05
2022-07-29T10:07:08.315Z,4.97
2022-07-29T10:09:28.442Z,4.80
2022-07-29T10:12:03.912Z,4.63
2022-07-29T10:14:21.826Z,4.65
2022-07-29T10:16:39.704Z,4.75
2022-07-29T10:18:58.223Z,4.53
2022-07-29T10:21:35.082Z,5.53
2022-07-29T10:23:54.647Z,4.57
2022-07-29T10:26:18.216Z,4.40
2022-07-29T10:28:36.793Z,4.55
2022-07-29T10:31:00.975Z,4.50
2022-07-29T10:33:43.243Z,4.50
2022-07-29T10:36:04.414Z,4.30
2022-07-29T10:38:28.666Z,4.72
2022-07-29T10:41:06.809Z,4.28
2022-07-29T10:43:29.998Z,5.05
2022-07-29T10:45:50.917Z,4.47
2022-07-29T10:48:10.898Z,4.40
2022-07-29T10:50:28.760Z,4.53
2022-07-29T10:52:58.941Z,4.57
2022-07-29T10:55:34.699Z,4.32
2022-07-29T10:58:13.960Z,6.57
2022-07-29T11:00:33.043Z,4.53
2022-07-29T11:02:54.627Z,4.30
2022-07-29T11:05:15.890Z,4.57
2022-07-29T11:07:45.978Z,4.60
2022-07-29T11:10:13.898Z,7.60
2022-07-29T11:12:38.879Z,5.05
2022-07-29T11:15:00.251Z,4.03
2022-07-29T11:17:18.403Z,4.07
2022-07-29T11:19:44.740Z,4.47
2022-07-29T11:22:05.573Z,4.20
2022-07-29T11:24:30.282Z,4.30
2022-07-29T11:27:08.495Z,4.10
2022-07-29T11:32:22.862Z,4.55
2022-07-29T11:34:41.827Z,4.00
2022-07-29T11:37:14.302Z,4.78
2022-07-29T11:39:36.695Z,4.07
2022-07-29T11:42:15.576Z,4.43
2022-07-29T11:44:52.461Z,5.15
2022-07-29T11:47:11.582Z,4.70
2022-07-29T11:49:32.732Z,4.95
2022-07-29T11:51:54.978Z,4.13
2022-07-29T11:54:16.044Z,5.05
2022-07-29T11:56:34.628Z,4.30
2022-07-29T11:58:52.926Z,4.70
2022-07-29T12:01:15.180Z,4.55
2022-07-29T12:03:36.353Z,4.30
2022-07-29T12:05:57.507Z,5.05
2022-07-29T12:08:23.332Z,4.70
2022-07-29T12:10:43.055Z,4.50
2022-07-29T12:13:01.896Z,4.00
2022-07-29T12:15:22.381Z,5.10
2022-07-29T12:17:40.798Z,4.88
2022-07-29T12:20:02.428Z,4.95
2022-07-29T12:22:35.141Z,4.50
2022-07-29T12:24:54.558Z,4.70
2022-07-29T12:27:19.390Z,4.75
2022-07-29T12:29:57.624Z,4.70
2022-07-29T12:32:19.480Z,4.65
2022-07-29T12:34:38.078Z,4.68
2022-07-29T12:36:56.644Z,4.68
2022-07-29T12:39:14.828Z,4.85
2022-07-29T12:41:33.505Z,5.22
2022-07-29T12:43:56.046Z,4.63
2022-07-29T12:46:16.218Z,4.80
2022-07-29T12:48:38.417Z,4.35
2022-07-29T12:50:57.752Z,4.88
2022-07-29T12:53:16.058Z,4.68
2022-07-29T12:55:43.597Z,4.40
2022-07-29T12:58:01.845Z,5.03
2022-07-29T13:00:24.277Z,4.13
2022-07-29T13:02:42.898Z,4.90
2022-07-29T13:05:05.229Z,4.65
2022-07-29T13:07:55.525Z,4.22
2022-07-29T13:10:17.919Z,5.10
2022-07-29T13:12:36.281Z,5.32
2022-07-29T13:14:55.181Z,4.68
2022-07-29T13:17:17.369Z,5.00
2022-07-29T13:19:36.398Z,4.55
2022-07-29T13:21:54.860Z,5.63
2022-07-29T13:24:18.138Z,5.00
2022-07-29T13:26:41.950Z,5.03
2022-07-29T13:28:59.832Z,4.93
2022-07-29T13:31:17.690Z,4.53
2022-07-29T13:33:35.622Z,4.93
2022-07-29T13:35:53.618Z,4.47
2022-07-29T13:38:11.571Z,5.20
2022-07-29T13:40:30.228Z,4.28
2022-07-29T13:42:48.367Z,4.93
2022-07-29T13:45:07.822Z,4.68
2022-07-29T13:47:32.268Z,4.88
2022-07-29T13:49:51.380Z,4.95
2022-07-29T13:52:09.205Z,4.18
2022-07-29T13:54:27.507Z,4.68
2022-07-29T13:56:46.297Z,5.20
2022-07-29T13:59:04.241Z,5.00
2022-07-29T14:01:22.690Z,4.55
2022-07-29T14:03:45.714Z,4.93
2022-07-29T14:06:03.957Z,5.10
2022-07-29T14:08:22.018Z,5.03
2022-07-29T14:10:42.524Z,4.53
2022-07-29T14:13:00.453Z,4.75
2022-07-29T14:15:18.478Z,4.65
2022-07-29T14:17:37.855Z,5.03
2022-07-29T14:19:55.980Z,4.78
2022-07-29T14:22:13.989Z,5.00
2022-07-29T14:24:32.687Z,4.53
2022-07-29T14:26:54.309Z,4.90
2022-07-29T14:29:12.484Z,4.90
2022-07-29T14:31:30.407Z,5.10
2022-07-29T14:33:49.352Z,4.65
2022-07-29T14:36:07.600Z,4.45
2022-07-29T14:38:26.987Z,5.25
2022-07-29T14:40:44.952Z,5.00
2022-07-29T14:43:02.916Z,4.85
2022-07-29T14:45:20.926Z,4.97
2022-07-29T14:47:39.551Z,4.55
2022-07-29T14:49:57.881Z,4.82
2022-07-29T14:52:15.791Z,5.00
2022-07-29T14:54:34.031Z,4.82
2022-07-29T14:56:56.425Z,5.05
2022-07-29T14:59:14.410Z,4.90
2022-07-29T15:01:32.714Z,4.80
2022-07-29T15:03:51.614Z,4.68
2022-07-29T15:06:09.815Z,4.95
2022-07-29T15:08:30.984Z,5.13
2022-07-29T15:10:49.076Z,4.57
2022-07-29T15:13:07.065Z,4.75
2022-07-29T15:15:24.978Z,4.78
2022-07-29T15:17:43.613Z,4.70
2022-07-29T15:20:01.445Z,4.13
2022-07-29T15:22:19.333Z,4.78
2022-07-29T15:24:37.239Z,4.20
2022-07-29T15:26:56.008Z,4.75
2022-07-29T15:29:14.588Z,4.75
2022-07-29T15:31:32.726Z,5.00
2022-07-29T15:33:54.405Z,4.55
2022-07-29T15:36:35.618Z,4.80
2022-07-29T15:38:56.043Z,4.15
2022-07-29T15:41:39.344Z,4.82
2022-07-29T15:47:20.999Z,4.53
2022-07-29T15:49:47.887Z,4.72
2022-07-29T15:53:07.591Z,5.00
2022-07-29T15:56:09.951Z,4.78
2022-07-29T15:58:27.963Z,4.57
2022-07-29T16:00:46.661Z,4.90
2022-07-29T16:03:04.965Z,4.40
2022-07-29T16:05:23.844Z,4.10
2022-07-29T16:07:41.732Z,4.53
2022-07-29T16:10:01.976Z,4.65
2022-07-29T16:12:43.869Z,4.40
2022-07-29T16:15:31.103Z,4.53
2022-07-29T16:17:50.697Z,4.72
2022-07-29T16:20:09.053Z,4.50
2022-07-29T16:22:29.329Z,4.47
2022-07-29T16:24:47.134Z,4.53
2022-07-29T16:27:40.908Z,4.38
2022-07-29T16:30:12.631Z,4.57
2022-07-29T16:32:36.493Z,5.10
2022-07-29T16:34:58.433Z,4.55
2022-07-29T16:37:16.345Z,4.47
2022-07-29T16:39:34.516Z,4.50
2022-07-29T16:42:43.967Z,5.38
2022-07-29T16:45:01.893Z,4.30
2022-07-29T16:47:20.776Z,4.57
2022-07-29T16:49:38.890Z,4.65
2022-07-29T16:51:57.083Z,4.30
2022-07-29T16:54:21.221Z,4.65
2022-07-29T16:56:40.559Z,4.30
2022-07-29T16:58:59.063Z,5.15
2022-07-29T17:01:18.140Z,4.60
2022-07-29T17:04:00.212Z,4.68
2022-07-29T17:06:42.107Z,4.32
2022-07-29T17:09:32.036Z,4.57
2022-07-29T17:11:55.043Z,4.40
2022-07-29T17:14:13.508Z,4.55
2022-07-29T17:16:31.408Z,4.85
2022-07-29T17:18:49.550Z,4.60
2022-07-29T17:21:08.093Z,4.93
2022-07-29T17:23:26.287Z,4.75
2022-07-29T17:25:44.123Z,4.72
2022-07-29T17:28:02.357Z,4.47
2022-07-29T17:30:20.293Z,4.22
2022-07-29T17:32:38.818Z,4.82
2022-07-29T17:34:57.028Z,4.63
2022-07-29T17:37:15.291Z,4.43
2022-07-29T17:39:35.217Z,5.00
2022-07-29T17:41:53.191Z,4.88
2022-07-29T17:44:14.107Z,4.43
2022-07-29T17:46:31.950Z,5.30
2022-07-29T17:48:50.629Z,11.30
2022-07-29T17:51:09.450Z,9.55
2022-07-29T17:53:27.359Z,9.77
2022-07-29T17:55:45.963Z,8.10
2022-07-29T17:58:04.405Z,7.70
2022-07-29T18:00:23.386Z,6.82
2022-07-29T18:02:41.735Z,7.28
2022-07-29T18:04:59.699Z,6.18
2022-07-29T18:07:17.866Z,6.57
2022-07-29T18:09:36.028Z,6.15
2022-07-29T18:11:54.893Z,5.85
2022-07-29T18:14:14.001Z,5.75
2022-07-29T18:16:32.378Z,5.47
2022-07-29T18:18:50.808Z,6.55
2022-07-29T18:21:08.805Z,5.28
2022-07-29T18:23:26.878Z,5.07
2022-07-29T18:25:45.026Z,5.63
2022-07-29T18:28:03.240Z,5.82
2022-07-29T18:30:21.709Z,5.57
2022-07-29T18:32:39.732Z,5.40
2022-07-29T18:34:57.558Z,4.95
2022-07-29T18:37:15.838Z,5.82
2022-07-29T18:39:34.177Z,6.15
2022-07-29T18:41:52.253Z,5.53
2022-07-29T18:44:11.769Z,5.72
2022-07-29T18:46:32.241Z,5.68
2022-07-29T18:48:51.519Z,5.80
2022-07-29T18:51:10.313Z,5.43
2022-07-29T18:53:28.555Z,6.15
2022-07-29T18:55:46.460Z,5.72
2022-07-29T18:58:04.372Z,5.78
2022-07-29T19:00:22.929Z,6.10
2022-07-29T19:02:41.752Z,5.93
2022-07-29T19:05:00.593Z,5.97
2022-07-29T19:07:19.466Z,5.53
2022-07-29T19:09:49.131Z,6.07
2022-07-29T19:12:07.739Z,6.20
2022-07-29T19:14:25.631Z,6.20
2022-07-29T19:16:43.797Z,5.22
2022-07-29T19:19:01.991Z,6.00
2022-07-29T19:21:19.996Z,5.80
2022-07-29T19:24:06.582Z,6.03
2022-07-29T19:26:20.559Z,5.93
2022-07-29T19:28:40.802Z,5.57
2022-07-29T19:31:00.789Z,5.40
2022-07-29T19:33:19.408Z,6.20
2022-07-29T19:35:37.264Z,5.40
2022-07-29T19:37:55.749Z,5.78
2022-07-29T19:40:14.143Z,5.97
2022-07-29T19:42:32.083Z,6.10
2022-07-29T19:44:50.570Z,6.05
2022-07-29T19:47:09.857Z,6.03
2022-07-29T19:49:29.172Z,5.85
2022-07-29T19:51:47.124Z,6.05
2022-07-29T19:54:06.082Z,6.65
2022-07-29T19:56:27.230Z,5.82
2022-07-29T19:58:46.664Z,6.32
2022-07-29T20:01:10.335Z,5.75
2022-07-29T20:03:29.435Z,6.20
2022-07-29T20:05:51.148Z,6.22
2022-07-29T20:08:09.476Z,6.45
2022-07-29T20:10:27.776Z,6.22
2022-07-29T20:12:45.683Z,7.30
2022-07-29T20:15:07.779Z,7.90
2022-07-29T20:17:27.293Z,7.90
2022-07-29T20:19:45.193Z,8.18
2022-07-29T20:22:03.129Z,8.38
2022-07-29T20:24:21.860Z,9.95
2022-07-29T20:26:39.718Z,9.13
2022-07-29T20:28:57.713Z,8.48
2022-07-29T20:31:16.914Z,8.45
2022-07-29T20:33:35.545Z,10.18
2022-07-29T20:35:53.564Z,8.43
2022-07-29T20:38:15.032Z,7.90
2022-07-29T20:40:36.455Z,8.25
2022-07-29T20:42:55.510Z,7.13
2022-07-29T20:45:14.221Z,7.10
2022-07-29T20:47:32.223Z,7.82
2022-07-29T20:49:51.236Z,7.75
2022-07-29T20:52:09.384Z,8.63
2022-07-29T20:54:27.878Z,7.32
2022-07-29T20:56:46.079Z,8.40
2022-07-29T20:59:04.108Z,8.48
2022-07-29T21:01:22.307Z,8.70
2022-07-29T21:03:40.532Z,8.48
2022-07-29T21:05:58.770Z,8.98
2022-07-29T21:08:17.688Z,8.05
2022-07-29T21:10:36.080Z,7.70
2022-07-29T21:12:54.474Z,8.43
2022-07-29T21:15:16.209Z,7.47
2022-07-29T21:17:40.588Z,7.20
2022-07-29T21:19:58.621Z,9.20
2022-07-29T21:22:16.734Z,8.20
2022-07-29T21:24:34.578Z,7.95
2022-07-29T21:27:18.272Z,8.07
2022-07-29T21:29:30.859Z,8.52
2022-07-29T21:31:48.708Z,7.35
2022-07-29T21:34:06.534Z,8.27
2022-07-29T21:39:07.359Z,7.03
2022-07-29T21:41:25.284Z,8.18
2022-07-29T21:43:43.875Z,6.60
2022-07-29T21:46:01.783Z,6.28
2022-07-29T21:48:20.800Z,6.15
2022-07-29T21:50:38.777Z,6.18
2022-07-29T21:52:56.758Z,6.15
2022-07-29T21:55:15.039Z,5.82
2022-07-29T21:57:36.498Z,6.30
2022-07-29T21:59:56.669Z,6.00
2022-07-29T22:02:16.717Z,5.45
2022-07-29T22:04:36.153Z,5.82
2022-07-29T22:06:54.163Z,5.95
2022-07-29T22:09:12.173Z,5.28
2022-07-29T22:11:30.624Z,5.75
2022-07-29T22:13:50.107Z,5.05
2022-07-29T22:16:10.418Z,5.90
2022-07-29T22:18:28.543Z,5.00
2022-07-29T22:20:46.766Z,5.18
2022-07-29T22:23:04.761Z,4.95
2022-07-29T22:25:22.882Z,4.32
2022-07-29T22:27:41.640Z,4.70
2022-07-29T22:29:59.917Z,4.50
2022-07-29T22:32:17.959Z,4.57
2022-07-29T22:34:37.243Z,4.78
2022-07-29T22:36:56.017Z,4.68
2022-07-29T22:39:15.535Z,5.03
2022-07-29T22:41:34.430Z,4.80
2022-07-29T22:43:52.521Z,5.00
2022-07-29T22:46:10.966Z,4.75
2022-07-29T22:48:29.831Z,4.53
2022-07-29T22:50:47.821Z,4.45
2022-07-29T22:53:06.033Z,4.00
2022-07-29T22:55:24.017Z,4.80
2022-07-29T22:57:42.157Z,4.20
2022-07-29T23:00:02.664Z,3.88
2022-07-29T23:02:20.854Z,4.10
2022-07-29T23:04:38.887Z,3.90
2022-07-29T23:06:57.197Z,3.67
2022-07-29T23:09:15.169Z,3.90
2022-07-29T23:11:33.204Z,4.60
2022-07-29T23:13:51.180Z,4.05
2022-07-29T23:16:09.174Z,4.18
2022-07-29T23:18:27.468Z,4.40
2022-07-29T23:20:45.539Z,4.35
2022-07-29T23:23:03.858Z,4.18
2022-07-29T23:25:21.907Z,4.10
2022-07-29T23:27:40.081Z,4.03
2022-07-29T23:29:57.900Z,3.90
2022-07-29T23:32:15.968Z,4.47
2022-07-29T23:34:34.042Z,4.00
2022-07-29T23:36:51.998Z,3.85
2022-07-29T23:39:11.689Z,4.53
2022-07-29T23:41:30.046Z,4.68
2022-07-29T23:43:51.346Z,4.20
2022-07-29T23:46:09.238Z,4.00
2022-07-29T23:48:27.355Z,4.40
2022-07-29T23:50:45.171Z,4.22
2022-07-29T23:53:02.966Z,4.30
2022-07-29T23:55:37.408Z,4.43
2022-07-29T23:57:57.011Z,4.43
